sensor_id;sensor_type;location;lat;lon;timestamp;temperature;humidity
2687;DHT22;1353;51.386;7.028;2022-12-07T00:01:06;4.20;99.90
2687;DHT22;1353;51.386;7.028;2022-12-07T00:03:33;4.20;99.90
2687;DHT22;1353;51.386;7.028;2022-12-07T00:06:01;4.20;99.90
2687;DHT22;1353;51.386;7.028;2022-12-07T00:08:28;4.20;99.90
2687;DHT22;1353;51.386;7.028;2022-12-07T00:11:00;4.20;99.90
2687;DHT22;1353;51.386;7.028;2022-12-07T00:13:27;4.20;99.90
2687;DHT22;1353;51.386;7.028;2022-12-07T00:15:55;4.20;99.90
2687;DHT22;1353;51.386;7.028;2022-12-07T00:18:22;4.20;99.90
2687;DHT22;1353;51.386;7.028;2022-12-07T00:20:49;4.20;99.90
2687;DHT22;1353;51.386;7.028;2022-12-07T00:23:15;4.20;99.90
2687;DHT22;1353;51.386;7.028;2022-12-07T00:25:42;4.20;99.90
2687;DHT22;1353;51.386;7.028;2022-12-07T00:28:09;4.20;99.90
2687;DHT22;1353;51.386;7.028;2022-12-07T00:30:36;4.20;99.90
2687;DHT22;1353;51.386;7.028;2022-12-07T00:33:04;4.20;99.90
2687;DHT22;1353;51.386;7.028;2022-12-07T00:35:31;4.20;99.90
2687;DHT22;1353;51.386;7.028;2022-12-07T00:37:57;4.20;99.90
2687;DHT22;1353;51.386;7.028;2022-12-07T00:40:24;4.20;99.90
2687;DHT22;1353;51.386;7.028;2022-12-07T00:42:51;4.20;99.90
2687;DHT22;1353;51.386;7.028;2022-12-07T00:45:17;4.20;99.90
2687;DHT22;1353;51.386;7.028;2022-12-07T00:47:44;4.20;99.90
2687;DHT22;1353;51.386;7.028;2022-12-07T00:50:12;4.20;99.90
2687;DHT22;1353;51.386;7.028;2022-12-07T00:52:39;4.20;99.90
2687;DHT22;1353;51.386;7.028;2022-12-07T00:55:06;4.30;99.90
2687;DHT22;1353;51.386;7.028;2022-12-07T00:57:33;4.20;99.90
2687;DHT22;1353;51.386;7.028;2022-12-07T01:00:00;4.20;99.90
2687;DHT22;1353;51.386;7.028;2022-12-07T01:02:26;4.20;99.90
2687;DHT22;1353;51.386;7.028;2022-12-07T01:04:53;4.20;99.90
2687;DHT22;1353;51.386;7.028;2022-12-07T01:07:21;4.30;99.90
2687;DHT22;1353;51.386;7.028;2022-12-07T01:09:48;4.20;99.90
2687;DHT22;1353;51.386;7.028;2022-12-07T01:12:15;4.30;99.90
2687;DHT22;1353;51.386;7.028;2022-12-07T01:14:41;4.20;99.90
2687;DHT22;1353;51.386;7.028;2022-12-07T01:17:08;4.20;99.90
2687;DHT22;1353;51.386;7.028;2022-12-07T01:19:35;4.30;99.90
2687;DHT22;1353;51.386;7.028;2022-12-07T01:22:01;4.30;99.90
2687;DHT22;1353;51.386;7.028;2022-12-07T01:24:30;4.30;99.90
2687;DHT22;1353;51.386;7.028;2022-12-07T01:26:56;4.20;99.90
2687;DHT22;1353;51.386;7.028;2022-12-07T01:29:23;4.30;99.90
2687;DHT22;1353;51.386;7.028;2022-12-07T01:31:50;4.30;99.90
2687;DHT22;1353;51.386;7.028;2022-12-07T01:34:16;4.20;99.90
2687;DHT22;1353;51.386;7.028;2022-12-07T01:36:43;4.30;99.90
2687;DHT22;1353;51.386;7.028;2022-12-07T01:39:10;4.30;99.90
2687;DHT22;1353;51.386;7.028;2022-12-07T01:41:39;4.30;99.90
2687;DHT22;1353;51.386;7.028;2022-12-07T01:44:20;4.20;99.90
2687;DHT22;1353;51.386;7.028;2022-12-07T01:46:49;4.30;99.90
2687;DHT22;1353;51.386;7.028;2022-12-07T01:49:21;4.30;99.90
2687;DHT22;1353;51.386;7.028;2022-12-07T01:51:51;4.30;99.90
2687;DHT22;1353;51.386;7.028;2022-12-07T01:54:20;4.20;99.90
2687;DHT22;1353;51.386;7.028;2022-12-07T01:56:52;4.30;99.90
2687;DHT22;1353;51.386;7.028;2022-12-07T01:59:22;4.20;99.90
2687;DHT22;1353;51.386;7.028;2022-12-07T02:01:51;4.20;99.90
2687;DHT22;1353;51.386;7.028;2022-12-07T02:04:18;4.20;99.90
2687;DHT22;1353;51.386;7.028;2022-12-07T02:06:45;4.20;99.90
2687;DHT22;1353;51.386;7.028;2022-12-07T02:09:12;4.20;99.90
2687;DHT22;1353;51.386;7.028;2022-12-07T02:11:39;4.20;99.90
2687;DHT22;1353;51.386;7.028;2022-12-07T02:14:07;4.20;99.90
2687;DHT22;1353;51.386;7.028;2022-12-07T02:16:42;4.20;99.90
2687;DHT22;1353;51.386;7.028;2022-12-07T02:22:33;4.20;99.90
2687;DHT22;1353;51.386;7.028;2022-12-07T02:25:13;4.20;99.90
2687;DHT22;1353;51.386;7.028;2022-12-07T02:27:45;4.20;99.90
2687;DHT22;1353;51.386;7.028;2022-12-07T02:30:14;4.20;99.90
2687;DHT22;1353;51.386;7.028;2022-12-07T02:32:47;4.10;99.90
2687;DHT22;1353;51.386;7.028;2022-12-07T02:35:19;4.20;99.90
2687;DHT22;1353;51.386;7.028;2022-12-07T02:37:53;4.10;99.90
2687;DHT22;1353;51.386;7.028;2022-12-07T02:40:25;4.00;99.90
2687;DHT22;1353;51.386;7.028;2022-12-07T02:42:58;4.10;99.90
2687;DHT22;1353;51.386;7.028;2022-12-07T02:45:29;4.00;99.90
2687;DHT22;1353;51.386;7.028;2022-12-07T02:47:59;4.00;99.90
2687;DHT22;1353;51.386;7.028;2022-12-07T02:50:26;4.00;99.90
2687;DHT22;1353;51.386;7.028;2022-12-07T02:52:53;4.00;99.90
2687;DHT22;1353;51.386;7.028;2022-12-07T02:55:25;4.00;99.90
2687;DHT22;1353;51.386;7.028;2022-12-07T03:00:55;4.00;99.90
2687;DHT22;1353;51.386;7.028;2022-12-07T03:03:25;4.00;99.90
2687;DHT22;1353;51.386;7.028;2022-12-07T03:06:02;3.90;99.90
2687;DHT22;1353;51.386;7.028;2022-12-07T03:08:37;3.90;99.90
2687;DHT22;1353;51.386;7.028;2022-12-07T03:11:07;3.90;99.90
2687;DHT22;1353;51.386;7.028;2022-12-07T03:13:39;3.90;99.90
2687;DHT22;1353;51.386;7.028;2022-12-07T03:16:12;3.80;99.90
2687;DHT22;1353;51.386;7.028;2022-12-07T03:18:44;3.90;99.90
2687;DHT22;1353;51.386;7.028;2022-12-07T03:21:16;3.80;99.90
2687;DHT22;1353;51.386;7.028;2022-12-07T03:23:47;3.80;99.90
2687;DHT22;1353;51.386;7.028;2022-12-07T03:26:17;3.80;99.90
2687;DHT22;1353;51.386;7.028;2022-12-07T03:28:48;3.80;99.90
2687;DHT22;1353;51.386;7.028;2022-12-07T03:31:19;3.80;99.90
2687;DHT22;1353;51.386;7.028;2022-12-07T03:33:51;3.80;99.90
2687;DHT22;1353;51.386;7.028;2022-12-07T03:36:22;3.80;99.90
2687;DHT22;1353;51.386;7.028;2022-12-07T03:38:55;3.70;99.90
2687;DHT22;1353;51.386;7.028;2022-12-07T03:41:25;3.70;99.90
2687;DHT22;1353;51.386;7.028;2022-12-07T03:43:53;3.80;99.90
2687;DHT22;1353;51.386;7.028;2022-12-07T03:46:35;3.70;99.90
2687;DHT22;1353;51.386;7.028;2022-12-07T03:49:08;3.70;99.90
2687;DHT22;1353;51.386;7.028;2022-12-07T03:51:40;3.70;99.90
2687;DHT22;1353;51.386;7.028;2022-12-07T03:54:12;3.70;99.90
2687;DHT22;1353;51.386;7.028;2022-12-07T03:56:41;3.70;99.90
2687;DHT22;1353;51.386;7.028;2022-12-07T03:59:10;3.70;99.90
2687;DHT22;1353;51.386;7.028;2022-12-07T04:01:41;3.70;99.90
2687;DHT22;1353;51.386;7.028;2022-12-07T04:04:08;3.70;99.90
2687;DHT22;1353;51.386;7.028;2022-12-07T04:06:35;3.60;99.90
2687;DHT22;1353;51.386;7.028;2022-12-07T04:09:02;3.60;99.90
2687;DHT22;1353;51.386;7.028;2022-12-07T04:11:28;3.60;99.90
2687;DHT22;1353;51.386;7.028;2022-12-07T04:13:55;3.60;99.90
2687;DHT22;1353;51.386;7.028;2022-12-07T04:16:41;3.60;99.90
2687;DHT22;1353;51.386;7.028;2022-12-07T04:19:08;3.60;99.90
2687;DHT22;1353;51.386;7.028;2022-12-07T04:21:34;3.60;99.90
2687;DHT22;1353;51.386;7.028;2022-12-07T04:24:01;3.60;99.90
2687;DHT22;1353;51.386;7.028;2022-12-07T04:26:28;3.50;99.90
2687;DHT22;1353;51.386;7.028;2022-12-07T04:28:54;3.50;99.90
2687;DHT22;1353;51.386;7.028;2022-12-07T04:31:21;3.50;99.90
2687;DHT22;1353;51.386;7.028;2022-12-07T04:33:49;3.50;99.90
2687;DHT22;1353;51.386;7.028;2022-12-07T04:36:16;3.50;99.90
2687;DHT22;1353;51.386;7.028;2022-12-07T04:38:45;3.50;99.90
2687;DHT22;1353;51.386;7.028;2022-12-07T04:41:12;3.50;99.90
2687;DHT22;1353;51.386;7.028;2022-12-07T04:43:39;3.40;99.90
2687;DHT22;1353;51.386;7.028;2022-12-07T04:46:06;3.40;99.90
2687;DHT22;1353;51.386;7.028;2022-12-07T04:48:32;3.40;99.90
2687;DHT22;1353;51.386;7.028;2022-12-07T04:51:02;3.40;99.90
2687;DHT22;1353;51.386;7.028;2022-12-07T04:53:29;3.40;99.90
2687;DHT22;1353;51.386;7.028;2022-12-07T04:55:56;3.40;99.90
2687;DHT22;1353;51.386;7.028;2022-12-07T04:58:23;3.40;99.90
2687;DHT22;1353;51.386;7.028;2022-12-07T05:00:53;3.40;99.90
2687;DHT22;1353;51.386;7.028;2022-12-07T05:05:48;3.30;99.90
2687;DHT22;1353;51.386;7.028;2022-12-07T05:08:16;3.30;99.90
2687;DHT22;1353;51.386;7.028;2022-12-07T05:10:43;3.30;99.90
2687;DHT22;1353;51.386;7.028;2022-12-07T05:13:09;3.20;99.90
2687;DHT22;1353;51.386;7.028;2022-12-07T05:15:36;3.20;99.90
2687;DHT22;1353;51.386;7.028;2022-12-07T05:18:03;3.20;99.90
2687;DHT22;1353;51.386;7.028;2022-12-07T05:20:30;3.20;99.90
2687;DHT22;1353;51.386;7.028;2022-12-07T05:22:57;3.20;99.90
2687;DHT22;1353;51.386;7.028;2022-12-07T05:25:25;3.20;99.90
2687;DHT22;1353;51.386;7.028;2022-12-07T05:27:52;3.20;99.90
2687;DHT22;1353;51.386;7.028;2022-12-07T05:30:19;3.20;99.90
2687;DHT22;1353;51.386;7.028;2022-12-07T05:32:45;3.20;99.90
2687;DHT22;1353;51.386;7.028;2022-12-07T05:35:12;3.20;99.90
2687;DHT22;1353;51.386;7.028;2022-12-07T05:37:39;3.20;99.90
2687;DHT22;1353;51.386;7.028;2022-12-07T05:40:06;3.20;99.90
2687;DHT22;1353;51.386;7.028;2022-12-07T05:42:35;3.20;99.90
2687;DHT22;1353;51.386;7.028;2022-12-07T05:45:01;3.20;99.90
2687;DHT22;1353;51.386;7.028;2022-12-07T05:47:28;3.20;99.90
2687;DHT22;1353;51.386;7.028;2022-12-07T05:49:55;3.10;99.90
2687;DHT22;1353;51.386;7.028;2022-12-07T05:52:22;3.10;99.90
2687;DHT22;1353;51.386;7.028;2022-12-07T05:54:49;3.10;99.90
2687;DHT22;1353;51.386;7.028;2022-12-07T05:57:16;3.10;99.90
2687;DHT22;1353;51.386;7.028;2022-12-07T05:59:44;3.10;99.90
2687;DHT22;1353;51.386;7.028;2022-12-07T06:02:11;3.10;99.90
2687;DHT22;1353;51.386;7.028;2022-12-07T06:04:39;3.10;99.90
2687;DHT22;1353;51.386;7.028;2022-12-07T06:07:07;3.20;99.90
2687;DHT22;1353;51.386;7.028;2022-12-07T06:09:35;3.10;99.90
2687;DHT22;1353;51.386;7.028;2022-12-07T06:12:02;3.10;99.90
2687;DHT22;1353;51.386;7.028;2022-12-07T06:14:48;3.10;99.90
2687;DHT22;1353;51.386;7.028;2022-12-07T06:17:15;3.10;99.90
2687;DHT22;1353;51.386;7.028;2022-12-07T06:19:42;3.10;99.90
2687;DHT22;1353;51.386;7.028;2022-12-07T06:22:09;3.10;99.90
2687;DHT22;1353;51.386;7.028;2022-12-07T06:24:37;3.10;99.90
2687;DHT22;1353;51.386;7.028;2022-12-07T06:27:04;3.10;99.90
2687;DHT22;1353;51.386;7.028;2022-12-07T06:29:31;3.10;99.90
2687;DHT22;1353;51.386;7.028;2022-12-07T06:31:59;3.10;99.90
2687;DHT22;1353;51.386;7.028;2022-12-07T06:34:26;3.00;99.90
2687;DHT22;1353;51.386;7.028;2022-12-07T06:36:54;3.00;99.90
2687;DHT22;1353;51.386;7.028;2022-12-07T06:39:22;3.00;99.90
2687;DHT22;1353;51.386;7.028;2022-12-07T06:41:50;3.00;99.90
2687;DHT22;1353;51.386;7.028;2022-12-07T06:44:18;3.00;99.90
2687;DHT22;1353;51.386;7.028;2022-12-07T06:46:45;3.00;99.90
2687;DHT22;1353;51.386;7.028;2022-12-07T06:49:13;3.00;99.90
2687;DHT22;1353;51.386;7.028;2022-12-07T06:51:40;3.00;99.90
2687;DHT22;1353;51.386;7.028;2022-12-07T06:54:08;3.00;99.90
2687;DHT22;1353;51.386;7.028;2022-12-07T06:56:34;3.00;99.90
2687;DHT22;1353;51.386;7.028;2022-12-07T06:59:01;3.00;99.90
2687;DHT22;1353;51.386;7.028;2022-12-07T07:01:28;3.00;99.90
2687;DHT22;1353;51.386;7.028;2022-12-07T07:03:55;3.00;99.90
2687;DHT22;1353;51.386;7.028;2022-12-07T07:06:23;3.00;99.90
2687;DHT22;1353;51.386;7.028;2022-12-07T07:08:50;3.00;99.90
2687;DHT22;1353;51.386;7.028;2022-12-07T07:11:16;3.00;99.90
2687;DHT22;1353;51.386;7.028;2022-12-07T07:13:44;3.00;99.90
2687;DHT22;1353;51.386;7.028;2022-12-07T07:16:12;2.90;99.90
2687;DHT22;1353;51.386;7.028;2022-12-07T07:18:38;2.90;99.90
2687;DHT22;1353;51.386;7.028;2022-12-07T07:21:05;2.80;99.90
2687;DHT22;1353;51.386;7.028;2022-12-07T07:23:33;2.90;99.90
2687;DHT22;1353;51.386;7.028;2022-12-07T07:26:00;2.90;99.90
2687;DHT22;1353;51.386;7.028;2022-12-07T07:28:27;2.80;99.90
2687;DHT22;1353;51.386;7.028;2022-12-07T07:30:53;2.90;99.90
2687;DHT22;1353;51.386;7.028;2022-12-07T07:33:20;2.80;99.90
2687;DHT22;1353;51.386;7.028;2022-12-07T07:35:47;2.80;99.90
2687;DHT22;1353;51.386;7.028;2022-12-07T07:38:14;2.70;99.90
2687;DHT22;1353;51.386;7.028;2022-12-07T07:40:42;2.80;99.90
2687;DHT22;1353;51.386;7.028;2022-12-07T07:43:08;2.70;99.90
2687;DHT22;1353;51.386;7.028;2022-12-07T07:45:35;2.80;99.90
2687;DHT22;1353;51.386;7.028;2022-12-07T07:48:02;2.80;99.90
2687;DHT22;1353;51.386;7.028;2022-12-07T07:50:29;2.80;99.90
2687;DHT22;1353;51.386;7.028;2022-12-07T07:52:57;2.90;99.90
2687;DHT22;1353;51.386;7.028;2022-12-07T07:55:23;2.90;99.90
2687;DHT22;1353;51.386;7.028;2022-12-07T07:57:51;2.90;99.90
2687;DHT22;1353;51.386;7.028;2022-12-07T08:00:19;2.90;99.90
2687;DHT22;1353;51.386;7.028;2022-12-07T08:02:45;2.90;99.90
2687;DHT22;1353;51.386;7.028;2022-12-07T08:05:13;3.00;99.90
2687;DHT22;1353;51.386;7.028;2022-12-07T08:07:40;3.00;99.90
2687;DHT22;1353;51.386;7.028;2022-12-07T08:10:09;3.00;99.90
2687;DHT22;1353;51.386;7.028;2022-12-07T08:12:37;3.10;99.90
2687;DHT22;1353;51.386;7.028;2022-12-07T08:15:26;3.20;99.90
2687;DHT22;1353;51.386;7.028;2022-12-07T08:17:53;3.30;99.90
2687;DHT22;1353;51.386;7.028;2022-12-07T08:20:20;3.40;99.90
2687;DHT22;1353;51.386;7.028;2022-12-07T08:22:47;3.70;99.90
2687;DHT22;1353;51.386;7.028;2022-12-07T08:25:14;4.60;99.90
2687;DHT22;1353;51.386;7.028;2022-12-07T08:27:40;5.00;99.90
2687;DHT22;1353;51.386;7.028;2022-12-07T08:30:08;4.30;99.90
2687;DHT22;1353;51.386;7.028;2022-12-07T08:32:36;3.90;99.90
2687;DHT22;1353;51.386;7.028;2022-12-07T08:35:03;3.60;99.90
2687;DHT22;1353;51.386;7.028;2022-12-07T08:37:31;3.60;99.90
2687;DHT22;1353;51.386;7.028;2022-12-07T08:39:58;3.60;99.90
2687;DHT22;1353;51.386;7.028;2022-12-07T08:42:24;3.60;99.90
2687;DHT22;1353;51.386;7.028;2022-12-07T08:44:55;3.70;99.90
2687;DHT22;1353;51.386;7.028;2022-12-07T08:47:22;3.60;99.90
2687;DHT22;1353;51.386;7.028;2022-12-07T08:49:51;3.60;99.90
2687;DHT22;1353;51.386;7.028;2022-12-07T08:52:19;3.60;99.90
2687;DHT22;1353;51.386;7.028;2022-12-07T08:54:46;3.70;99.90
2687;DHT22;1353;51.386;7.028;2022-12-07T08:57:13;3.70;99.90
2687;DHT22;1353;51.386;7.028;2022-12-07T08:59:39;3.60;99.90
2687;DHT22;1353;51.386;7.028;2022-12-07T09:02:06;3.50;99.90
2687;DHT22;1353;51.386;7.028;2022-12-07T09:04:33;3.50;99.90
2687;DHT22;1353;51.386;7.028;2022-12-07T09:07:01;3.60;99.90
2687;DHT22;1353;51.386;7.028;2022-12-07T09:09:28;3.70;99.90
2687;DHT22;1353;51.386;7.028;2022-12-07T09:11:55;3.80;99.90
2687;DHT22;1353;51.386;7.028;2022-12-07T09:14:22;3.70;99.90
2687;DHT22;1353;51.386;7.028;2022-12-07T09:16:48;3.90;99.90
2687;DHT22;1353;51.386;7.028;2022-12-07T09:19:16;3.90;99.90
2687;DHT22;1353;51.386;7.028;2022-12-07T09:21:43;3.90;99.90
2687;DHT22;1353;51.386;7.028;2022-12-07T09:24:13;3.80;99.90
2687;DHT22;1353;51.386;7.028;2022-12-07T09:26:40;3.80;99.90
2687;DHT22;1353;51.386;7.028;2022-12-07T09:29:06;3.90;99.90
2687;DHT22;1353;51.386;7.028;2022-12-07T09:31:36;4.00;99.90
2687;DHT22;1353;51.386;7.028;2022-12-07T09:34:02;4.10;99.90
2687;DHT22;1353;51.386;7.028;2022-12-07T09:36:30;4.10;99.90
2687;DHT22;1353;51.386;7.028;2022-12-07T09:38:57;4.00;99.90
2687;DHT22;1353;51.386;7.028;2022-12-07T09:41:27;4.10;99.90
2687;DHT22;1353;51.386;7.028;2022-12-07T09:44:00;4.20;99.90
2687;DHT22;1353;51.386;7.028;2022-12-07T09:46:30;4.30;99.90
2687;DHT22;1353;51.386;7.028;2022-12-07T09:49:00;4.20;99.90
2687;DHT22;1353;51.386;7.028;2022-12-07T09:51:26;4.30;99.90
2687;DHT22;1353;51.386;7.028;2022-12-07T09:53:55;4.50;99.90
2687;DHT22;1353;51.386;7.028;2022-12-07T09:56:24;4.40;99.90
2687;DHT22;1353;51.386;7.028;2022-12-07T09:58:57;4.50;99.90
2687;DHT22;1353;51.386;7.028;2022-12-07T10:01:24;4.50;99.90
2687;DHT22;1353;51.386;7.028;2022-12-07T10:03:53;4.60;99.90
2687;DHT22;1353;51.386;7.028;2022-12-07T10:06:20;4.60;99.90
2687;DHT22;1353;51.386;7.028;2022-12-07T10:08:47;4.60;99.90
2687;DHT22;1353;51.386;7.028;2022-12-07T10:11:14;4.60;99.90
2687;DHT22;1353;51.386;7.028;2022-12-07T10:13:44;4.70;99.90
2687;DHT22;1353;51.386;7.028;2022-12-07T10:16:32;4.80;99.90
2687;DHT22;1353;51.386;7.028;2022-12-07T10:19:19;4.80;99.90
2687;DHT22;1353;51.386;7.028;2022-12-07T10:22:00;4.80;99.90
2687;DHT22;1353;51.386;7.028;2022-12-07T10:24:27;4.60;99.90
2687;DHT22;1353;51.386;7.028;2022-12-07T10:26:54;4.70;99.90
2687;DHT22;1353;51.386;7.028;2022-12-07T10:29:24;4.70;99.90
2687;DHT22;1353;51.386;7.028;2022-12-07T10:31:56;4.80;99.90
2687;DHT22;1353;51.386;7.028;2022-12-07T10:34:25;4.80;99.90
2687;DHT22;1353;51.386;7.028;2022-12-07T10:36:52;5.00;99.90
2687;DHT22;1353;51.386;7.028;2022-12-07T10:39:20;5.10;99.90
2687;DHT22;1353;51.386;7.028;2022-12-07T10:41:54;5.30;99.90
2687;DHT22;1353;51.386;7.028;2022-12-07T10:44:25;5.60;99.90
2687;DHT22;1353;51.386;7.028;2022-12-07T10:47:12;5.70;99.90
2687;DHT22;1353;51.386;7.028;2022-12-07T10:53:15;5.80;99.90
2687;DHT22;1353;51.386;7.028;2022-12-07T10:55:58;6.10;99.90
2687;DHT22;1353;51.386;7.028;2022-12-07T10:58:38;6.00;99.90
2687;DHT22;1353;51.386;7.028;2022-12-07T11:01:19;6.10;99.90
2687;DHT22;1353;51.386;7.028;2022-12-07T11:03:58;5.90;99.90
2687;DHT22;1353;51.386;7.028;2022-12-07T11:06:34;6.00;99.90
2687;DHT22;1353;51.386;7.028;2022-12-07T11:09:32;6.20;99.90
2687;DHT22;1353;51.386;7.028;2022-12-07T11:12:04;5.70;99.90
2687;DHT22;1353;51.386;7.028;2022-12-07T11:14:37;5.60;99.90
2687;DHT22;1353;51.386;7.028;2022-12-07T11:17:14;5.60;99.90
2687;DHT22;1353;51.386;7.028;2022-12-07T11:20:00;5.60;99.90
2687;DHT22;1353;51.386;7.028;2022-12-07T11:22:35;5.60;99.90
2687;DHT22;1353;51.386;7.028;2022-12-07T11:25:17;5.60;99.90
2687;DHT22;1353;51.386;7.028;2022-12-07T11:27:48;5.70;99.90
2687;DHT22;1353;51.386;7.028;2022-12-07T11:30:20;5.80;99.90
2687;DHT22;1353;51.386;7.028;2022-12-07T11:33:10;5.60;99.90
2687;DHT22;1353;51.386;7.028;2022-12-07T11:35:45;5.80;99.90
2687;DHT22;1353;51.386;7.028;2022-12-07T11:38:16;5.80;99.90
2687;DHT22;1353;51.386;7.028;2022-12-07T11:40:45;5.80;99.90
2687;DHT22;1353;51.386;7.028;2022-12-07T11:43:21;5.60;99.90
2687;DHT22;1353;51.386;7.028;2022-12-07T11:45:56;5.60;99.90
2687;DHT22;1353;51.386;7.028;2022-12-07T11:48:32;5.60;99.90
2687;DHT22;1353;51.386;7.028;2022-12-07T11:51:01;5.50;99.90
2687;DHT22;1353;51.386;7.028;2022-12-07T11:53:33;5.60;99.90
2687;DHT22;1353;51.386;7.028;2022-12-07T11:56:06;5.30;99.90
2687;DHT22;1353;51.386;7.028;2022-12-07T11:58:40;5.50;99.90
2687;DHT22;1353;51.386;7.028;2022-12-07T12:01:15;5.70;99.90
2687;DHT22;1353;51.386;7.028;2022-12-07T12:03:49;5.70;99.90
2687;DHT22;1353;51.386;7.028;2022-12-07T12:06:16;5.70;99.90
2687;DHT22;1353;51.386;7.028;2022-12-07T12:08:47;5.80;99.90
2687;DHT22;1353;51.386;7.028;2022-12-07T12:11:28;5.80;99.90
2687;DHT22;1353;51.386;7.028;2022-12-07T12:17:15;5.70;99.90
2687;DHT22;1353;51.386;7.028;2022-12-07T12:20:00;5.70;99.90
2687;DHT22;1353;51.386;7.028;2022-12-07T12:22:33;5.70;99.90
2687;DHT22;1353;51.386;7.028;2022-12-07T12:25:05;5.50;99.90
2687;DHT22;1353;51.386;7.028;2022-12-07T12:27:36;5.60;99.90
2687;DHT22;1353;51.386;7.028;2022-12-07T12:30:06;5.70;99.90
2687;DHT22;1353;51.386;7.028;2022-12-07T12:32:38;5.60;99.90
2687;DHT22;1353;51.386;7.028;2022-12-07T12:35:28;5.60;99.90
2687;DHT22;1353;51.386;7.028;2022-12-07T12:38:28;5.80;99.90
2687;DHT22;1353;51.386;7.028;2022-12-07T12:40:56;5.70;99.90
2687;DHT22;1353;51.386;7.028;2022-12-07T12:43:51;5.80;99.90
2687;DHT22;1353;51.386;7.028;2022-12-07T12:46:47;5.90;99.90
2687;DHT22;1353;51.386;7.028;2022-12-07T12:56:07;5.90;99.90
2687;DHT22;1353;51.386;7.028;2022-12-07T12:58:39;5.70;99.90
2687;DHT22;1353;51.386;7.028;2022-12-07T13:04:25;5.80;99.90
2687;DHT22;1353;51.386;7.028;2022-12-07T13:06:53;5.90;99.90
2687;DHT22;1353;51.386;7.028;2022-12-07T13:09:23;5.90;99.90
2687;DHT22;1353;51.386;7.028;2022-12-07T13:12:01;5.90;99.90
2687;DHT22;1353;51.386;7.028;2022-12-07T13:14:56;5.90;99.90
2687;DHT22;1353;51.386;7.028;2022-12-07T13:20:56;6.00;99.90
2687;DHT22;1353;51.386;7.028;2022-12-07T13:23:26;5.80;99.90
2687;DHT22;1353;51.386;7.028;2022-12-07T13:26:04;5.80;99.90
2687;DHT22;1353;51.386;7.028;2022-12-07T13:28:38;5.80;99.90
2687;DHT22;1353;51.386;7.028;2022-12-07T13:31:31;5.80;99.90
2687;DHT22;1353;51.386;7.028;2022-12-07T13:33:59;5.70;99.90
2687;DHT22;1353;51.386;7.028;2022-12-07T13:36:27;5.80;99.90
2687;DHT22;1353;51.386;7.028;2022-12-07T13:38:58;5.70;99.90
2687;DHT22;1353;51.386;7.028;2022-12-07T13:41:26;5.60;99.90
2687;DHT22;1353;51.386;7.028;2022-12-07T13:44:01;5.50;99.90
2687;DHT22;1353;51.386;7.028;2022-12-07T13:46:35;5.50;99.90
2687;DHT22;1353;51.386;7.028;2022-12-07T13:49:17;5.40;99.90
2687;DHT22;1353;51.386;7.028;2022-12-07T13:51:44;5.30;99.90
2687;DHT22;1353;51.386;7.028;2022-12-07T13:54:13;5.20;99.90
2687;DHT22;1353;51.386;7.028;2022-12-07T13:56:40;5.20;99.90
2687;DHT22;1353;51.386;7.028;2022-12-07T13:59:14;5.10;99.90
2687;DHT22;1353;51.386;7.028;2022-12-07T14:01:41;5.00;99.90
2687;DHT22;1353;51.386;7.028;2022-12-07T14:04:33;4.80;99.90
2687;DHT22;1353;51.386;7.028;2022-12-07T14:07:15;4.70;99.90
2687;DHT22;1353;51.386;7.028;2022-12-07T14:09:53;4.50;99.90
2687;DHT22;1353;51.386;7.028;2022-12-07T14:12:20;4.40;99.90
2687;DHT22;1353;51.386;7.028;2022-12-07T14:14:49;4.40;99.90
2687;DHT22;1353;51.386;7.028;2022-12-07T14:17:18;4.20;99.90
2687;DHT22;1353;51.386;7.028;2022-12-07T14:19:49;4.20;99.90
2687;DHT22;1353;51.386;7.028;2022-12-07T14:22:27;4.10;99.90
2687;DHT22;1353;51.386;7.028;2022-12-07T14:25:15;4.10;99.90
2687;DHT22;1353;51.386;7.028;2022-12-07T14:27:49;4.00;99.90
2687;DHT22;1353;51.386;7.028;2022-12-07T14:30:18;3.90;99.90
2687;DHT22;1353;51.386;7.028;2022-12-07T14:32:47;3.90;99.90
2687;DHT22;1353;51.386;7.028;2022-12-07T14:35:17;3.80;99.90
2687;DHT22;1353;51.386;7.028;2022-12-07T14:37:48;3.80;99.90
2687;DHT22;1353;51.386;7.028;2022-12-07T14:40:17;3.70;99.90
2687;DHT22;1353;51.386;7.028;2022-12-07T14:42:46;3.60;99.90
2687;DHT22;1353;51.386;7.028;2022-12-07T14:45:15;3.50;99.90
2687;DHT22;1353;51.386;7.028;2022-12-07T14:47:44;3.50;99.90
2687;DHT22;1353;51.386;7.028;2022-12-07T14:50:12;3.40;99.90
2687;DHT22;1353;51.386;7.028;2022-12-07T14:52:40;3.30;99.90
2687;DHT22;1353;51.386;7.028;2022-12-07T14:55:13;3.30;99.90
2687;DHT22;1353;51.386;7.028;2022-12-07T14:57:40;3.20;99.90
2687;DHT22;1353;51.386;7.028;2022-12-07T15:00:09;3.10;99.90
2687;DHT22;1353;51.386;7.028;2022-12-07T15:02:39;3.10;99.90
2687;DHT22;1353;51.386;7.028;2022-12-07T15:05:08;3.10;99.90
2687;DHT22;1353;51.386;7.028;2022-12-07T15:07:35;2.90;99.90
2687;DHT22;1353;51.386;7.028;2022-12-07T15:10:02;2.80;99.90
2687;DHT22;1353;51.386;7.028;2022-12-07T15:12:29;2.80;99.90
2687;DHT22;1353;51.386;7.028;2022-12-07T15:14:56;2.80;99.90
2687;DHT22;1353;51.386;7.028;2022-12-07T15:17:22;2.70;99.90
2687;DHT22;1353;51.386;7.028;2022-12-07T15:19:49;2.70;99.90
2687;DHT22;1353;51.386;7.028;2022-12-07T15:22:17;2.60;99.90
2687;DHT22;1353;51.386;7.028;2022-12-07T15:24:44;2.70;99.90
2687;DHT22;1353;51.386;7.028;2022-12-07T15:27:10;2.70;99.90
2687;DHT22;1353;51.386;7.028;2022-12-07T15:29:37;2.60;99.90
2687;DHT22;1353;51.386;7.028;2022-12-07T15:32:04;2.50;99.90
2687;DHT22;1353;51.386;7.028;2022-12-07T15:34:31;2.40;99.90
2687;DHT22;1353;51.386;7.028;2022-12-07T15:36:58;2.50;99.90
2687;DHT22;1353;51.386;7.028;2022-12-07T15:39:26;2.40;99.90
2687;DHT22;1353;51.386;7.028;2022-12-07T15:41:52;2.30;99.90
2687;DHT22;1353;51.386;7.028;2022-12-07T15:44:19;2.30;99.90
2687;DHT22;1353;51.386;7.028;2022-12-07T15:47:04;2.30;99.90
2687;DHT22;1353;51.386;7.028;2022-12-07T15:49:31;2.20;99.90
2687;DHT22;1353;51.386;7.028;2022-12-07T15:51:58;2.10;99.90
2687;DHT22;1353;51.386;7.028;2022-12-07T15:54:27;2.20;99.90
2687;DHT22;1353;51.386;7.028;2022-12-07T15:56:55;2.20;99.90
2687;DHT22;1353;51.386;7.028;2022-12-07T15:59:23;2.30;99.90
2687;DHT22;1353;51.386;7.028;2022-12-07T16:01:49;2.30;99.90
2687;DHT22;1353;51.386;7.028;2022-12-07T16:04:16;2.30;99.90
2687;DHT22;1353;51.386;7.028;2022-12-07T16:06:44;2.30;99.90
2687;DHT22;1353;51.386;7.028;2022-12-07T16:09:11;2.30;99.90
2687;DHT22;1353;51.386;7.028;2022-12-07T16:11:39;2.40;99.90
2687;DHT22;1353;51.386;7.028;2022-12-07T16:14:05;2.30;99.90
2687;DHT22;1353;51.386;7.028;2022-12-07T16:16:32;2.30;99.90
2687;DHT22;1353;51.386;7.028;2022-12-07T16:18:59;2.30;99.90
2687;DHT22;1353;51.386;7.028;2022-12-07T16:21:26;2.30;99.90
2687;DHT22;1353;51.386;7.028;2022-12-07T16:23:52;2.40;99.90
2687;DHT22;1353;51.386;7.028;2022-12-07T16:26:21;2.40;99.90
2687;DHT22;1353;51.386;7.028;2022-12-07T16:28:50;2.40;99.90
2687;DHT22;1353;51.386;7.028;2022-12-07T16:31:18;2.50;99.90
2687;DHT22;1353;51.386;7.028;2022-12-07T16:33:46;2.50;99.90
2687;DHT22;1353;51.386;7.028;2022-12-07T16:36:13;2.60;99.90
2687;DHT22;1353;51.386;7.028;2022-12-07T16:38:42;2.70;99.90
2687;DHT22;1353;51.386;7.028;2022-12-07T16:41:09;2.80;99.90
2687;DHT22;1353;51.386;7.028;2022-12-07T16:43:36;2.80;99.90
2687;DHT22;1353;51.386;7.028;2022-12-07T16:46:05;2.80;99.90
2687;DHT22;1353;51.386;7.028;2022-12-07T16:48:35;2.90;99.90
2687;DHT22;1353;51.386;7.028;2022-12-07T16:51:03;2.90;99.90
2687;DHT22;1353;51.386;7.028;2022-12-07T16:53:30;3.00;99.90
2687;DHT22;1353;51.386;7.028;2022-12-07T16:55:57;3.00;99.90
2687;DHT22;1353;51.386;7.028;2022-12-07T16:58:24;3.00;99.90
2687;DHT22;1353;51.386;7.028;2022-12-07T17:00:50;3.30;99.90
2687;DHT22;1353;51.386;7.028;2022-12-07T17:03:18;3.30;99.90